Time;durP1;ratioP1;P1;durP2;ratioP2;P2;SDS_P1;SDS_P2;PMS_P1;PMS_P2;Temp;Humidity;BMP_temperature;BMP_pressure;BME280_temperature;BME280_humidity;BME280_pressure;Samples;Min_cycle;Max_cycle;Signal;HPM_P1;HPM_P2
2022/11/04 00:01:29;;;;;;;23.40;16.85;;;11.10;99.90;;;;;;5012739;28;20025;-91
2022/11/04 00:03:55;;;;;;;23.50;16.90;;;11.10;99.90;;;;;;5018289;28;20708;-90
2022/11/04 00:06:21;;;;;;;26.20;18.00;;;11.10;99.90;;;;;;5011669;28;20101;-88
2022/11/04 00:08:48;;;;;;;24.77;19.15;;;11.00;99.90;;;;;;5009512;28;20487;-91
2022/11/04 00:14:12;;;;;;;19.27;16.42;;;11.00;99.90;;;;;;4993644;28;20037;-89
2022/11/04 00:19:23;;;;;;;16.85;13.98;;;11.00;99.90;;;;;;5026244;28;20040;-88
2022/11/04 00:29:53;;;;;;;6.45;4.85;;;10.90;99.90;;;;;;5033596;28;20500;-90
2022/11/04 00:35:04;;;;;;;4.65;2.13;;;10.70;99.90;;;;;;5029540;28;20110;-90
2022/11/04 00:37:30;;;;;;;3.53;1.70;;;10.70;99.90;;;;;;5018030;28;20021;-91
2022/11/04 00:39:55;;;;;;;3.42;1.77;;;10.70;99.90;;;;;;5035563;28;20109;-88
2022/11/04 00:42:21;;;;;;;3.28;1.27;;;10.60;99.90;;;;;;5010950;28;20018;-89
2022/11/04 00:44:47;;;;;;;1.98;1.25;;;10.60;99.90;;;;;;5002160;28;20486;-90
2022/11/04 00:47:12;;;;;;;5.03;1.52;;;10.60;99.90;;;;;;5016864;28;20040;-91
2022/11/04 00:49:38;;;;;;;2.15;1.08;;;10.50;99.90;;;;;;5014679;28;20042;-90
2022/11/04 00:52:04;;;;;;;3.50;1.42;;;10.50;99.90;;;;;;5011795;28;20028;-89
2022/11/04 00:54:29;;;;;;;2.72;1.40;;;10.50;99.90;;;;;;5015586;28;20120;-90
2022/11/04 00:56:55;;;;;;;3.15;1.75;;;10.40;99.90;;;;;;5016262;28;20160;-91
2022/11/04 00:59:20;;;;;;;2.58;1.20;;;10.40;99.90;;;;;;5007913;28;20025;-90
2022/11/04 01:01:46;;;;;;;3.58;1.50;;;10.40;99.90;;;;;;5018399;28;20022;-90
2022/11/04 01:04:12;;;;;;;4.32;2.10;;;10.40;99.90;;;;;;5016953;28;20017;-90
2022/11/04 01:06:37;;;;;;;5.45;2.20;;;10.30;99.90;;;;;;5022171;28;20440;-90
2022/11/04 01:09:07;;;;;;;4.03;1.85;;;10.30;99.90;;;;;;5017497;28;20059;-89
2022/11/04 01:11:33;;;;;;;4.50;3.03;;;10.20;99.90;;;;;;5011859;28;20022;-90
2022/11/04 01:13:59;;;;;;;6.57;4.22;;;10.20;99.90;;;;;;5017604;28;20091;-90
2022/11/04 01:16:26;;;;;;;7.32;4.70;;;10.20;99.90;;;;;;5010416;28;20018;-89
2022/11/04 01:18:52;;;;;;;10.90;6.05;;;10.10;99.90;;;;;;5008359;28;20022;-88
2022/11/04 01:21:18;;;;;;;13.32;8.02;;;10.10;99.90;;;;;;5012557;28;20075;-89
2022/11/04 01:23:44;;;;;;;13.57;9.43;;;10.10;99.90;;;;;;5016537;28;20385;-90
2022/11/04 01:26:22;;;;;;;14.25;10.38;;;10.00;99.90;;;;;;5035830;28;20105;-90
2022/11/04 01:28:48;;;;;;;13.23;9.60;;;10.00;99.90;;;;;;5010907;28;20042;-89
2022/11/04 01:31:22;;;;;;;12.57;10.15;;;9.90;99.90;;;;;;5022615;28;20041;-89
2022/11/04 01:33:49;;;;;;;13.23;10.55;;;9.90;99.90;;;;;;5008744;28;20388;-88
2022/11/04 01:36:15;;;;;;;17.00;11.23;;;9.90;99.90;;;;;;5019143;28;20040;-91
2022/11/04 01:38:41;;;;;;;15.68;12.07;;;9.80;99.90;;;;;;5012248;28;20034;-89
2022/11/04 01:41:14;;;;;;;16.00;11.40;;;9.70;99.90;;;;;;5014288;28;20026;-90
2022/11/04 01:43:48;;;;;;;15.73;11.65;;;9.70;99.90;;;;;;5032435;28;20021;-90
2022/11/04 01:46:25;;;;;;;20.30;13.90;;;9.70;99.90;;;;;;5016624;28;20033;-91
2022/11/04 01:48:52;;;;;;;19.02;14.15;;;9.60;99.90;;;;;;5017044;28;20101;-90
2022/11/04 01:51:19;;;;;;;22.42;15.30;;;9.60;99.90;;;;;;5005637;28;20061;-90
2022/11/04 01:53:45;;;;;;;22.33;14.43;;;9.50;99.90;;;;;;5005324;28;20021;-90
2022/11/04 01:56:14;;;;;;;20.50;16.33;;;9.50;99.90;;;;;;5015823;28;20088;-89
2022/11/04 01:58:45;;;;;;;22.27;15.82;;;9.50;99.90;;;;;;5016382;28;20029;-91
2022/11/04 02:01:11;;;;;;;21.55;15.73;;;9.60;99.90;;;;;;5009699;28;20030;-89
2022/11/04 02:03:49;;;;;;;24.27;16.75;;;9.60;99.90;;;;;;5009484;28;20063;-90
2022/11/04 02:06:17;;;;;;;28.42;18.20;;;9.60;99.90;;;;;;5010495;28;20025;-89
2022/11/04 02:08:44;;;;;;;26.42;17.73;;;9.70;99.90;;;;;;5000334;28;20103;-88
2022/11/04 02:12:48;;;;;;;24.00;17.60;;;9.70;99.90;;;;;;5013706;28;20159;-90
2022/11/04 02:13:55;;;;;;;26.10;18.75;;;9.70;99.90;;;;;;5023998;28;20037;-90
2022/11/04 02:16:35;;;;;;;27.23;18.42;;;9.70;99.90;;;;;;5015616;28;20025;-90
2022/11/04 02:19:12;;;;;;;26.05;18.35;;;9.70;99.90;;;;;;5012091;28;20379;-90
2022/11/04 02:22:12;;;;;;;31.77;19.17;;;9.80;99.90;;;;;;5005048;28;20025;-89
2022/11/04 02:24:59;;;;;;;26.13;18.52;;;9.70;99.90;;;;;;5028010;28;20033;-89
2022/11/04 02:28:03;;;;;;;26.95;19.90;;;9.80;99.90;;;;;;5001661;28;20076;-88
2022/11/04 02:30:42;;;;;;;29.85;20.02;;;9.70;99.90;;;;;;5015450;28;20049;-89
2022/11/04 02:33:28;;;;;;;29.88;20.48;;;9.60;99.90;;;;;;5023284;28;20082;-90
2022/11/04 02:36:06;;;;;;;28.58;20.17;;;9.60;99.90;;;;;;5014992;28;20121;-89
2022/11/04 02:38:49;;;;;;;29.08;19.77;;;9.50;99.90;;;;;;5017439;28;20029;-90
2022/11/04 02:41:33;;;;;;;;;;;9.50;99.90;;;;;;5001491;28;20482;-88
2022/11/04 02:44:26;;;;;;;23.55;16.30;;;9.40;99.90;;;;;;5031018;28;19921;-88
2022/11/04 02:47:11;;;;;;;27.60;18.30;;;9.40;99.90;;;;;;5014994;28;20021;-89
2022/11/04 02:49:48;;;;;;;23.02;17.25;;;9.40;99.90;;;;;;5014057;28;20552;-87
2022/11/04 02:52:24;;;;;;;24.27;16.52;;;9.30;99.90;;;;;;5033308;28;20046;-88
2022/11/04 02:55:00;;;;;;;33.10;16.08;;;9.30;99.90;;;;;;5011538;28;20033;-89
2022/11/04 02:57:30;;;;;;;24.20;15.30;;;9.30;99.90;;;;;;5013483;28;20068;-88
2022/11/04 02:59:58;;;;;;;25.35;14.85;;;9.30;99.90;;;;;;5025573;28;20051;-88
2022/11/04 03:02:32;;;;;;;19.73;13.30;;;9.30;99.90;;;;;;5011239;28;20046;-90
2022/11/04 03:04:58;;;;;;;22.55;13.57;;;9.40;99.90;;;;;;5007559;28;20029;-88
2022/11/04 03:07:30;;;;;;;21.92;14.40;;;9.40;99.90;;;;;;5013741;28;20029;-89
2022/11/04 03:10:01;;;;;;;21.85;14.48;;;9.40;99.90;;;;;;5003141;28;20033;-88
2022/11/04 03:12:33;;;;;;;19.45;13.45;;;9.50;99.90;;;;;;5003710;28;20028;-90
2022/11/04 03:15:04;;;;;;;26.70;14.23;;;9.50;99.90;;;;;;5012397;28;20033;-90
2022/11/04 03:17:49;;;;;;;22.73;11.90;;;9.50;99.90;;;;;;5014337;28;20036;-89
2022/11/04 03:20:24;;;;;;;17.65;11.68;;;9.40;99.90;;;;;;5015581;28;20141;-88
2022/11/04 03:22:54;;;;;;;22.20;10.93;;;9.40;99.90;;;;;;5004297;28;20018;-90
2022/11/04 03:25:23;;;;;;;15.25;9.68;;;9.30;99.90;;;;;;5011008;28;20034;-89
2022/11/04 03:27:53;;;;;;;17.00;9.20;;;9.20;99.90;;;;;;5001371;28;20073;-89
2022/11/04 03:30:22;;;;;;;18.05;10.07;;;9.10;99.90;;;;;;5001633;28;20038;-90
2022/11/04 03:33:15;;;;;;;15.63;7.80;;;9.00;99.90;;;;;;5015751;28;20079;-89
2022/11/04 03:35:41;;;;;;;21.75;9.32;;;9.00;99.90;;;;;;5015687;28;20021;-88
2022/11/04 03:38:07;;;;;;;14.95;8.27;;;8.90;99.90;;;;;;5020100;28;20032;-88
2022/11/04 03:40:33;;;;;;;14.77;7.75;;;8.90;99.90;;;;;;5014211;28;20466;-88
2022/11/04 03:43:15;;;;;;;15.68;7.45;;;8.80;99.90;;;;;;5013339;28;20120;-89
2022/11/04 03:45:41;;;;;;;13.85;7.00;;;8.80;99.90;;;;;;5014173;28;20037;-89
2022/11/04 03:48:07;;;;;;;16.33;7.15;;;8.70;99.90;;;;;;5014728;28;20176;-89
2022/11/04 03:50:40;;;;;;;17.55;7.28;;;8.60;99.90;;;;;;5012302;28;20112;-89
2022/11/04 03:53:06;;;;;;;12.13;6.20;;;8.60;99.90;;;;;;5012866;28;20502;-88
2022/11/04 03:55:44;;;;;;;17.58;6.25;;;8.50;99.90;;;;;;5004992;28;20478;-90
2022/11/04 03:58:38;;;;;;;13.00;6.03;;;8.50;99.90;;;;;;5007609;28;20025;-89
2022/11/04 04:01:29;;;;;;;16.60;5.97;;;8.40;99.90;;;;;;5000283;28;20030;-89
2022/11/04 04:04:17;;;;;;;10.80;5.72;;;8.40;99.90;;;;;;5016932;28;20025;-89
2022/11/04 04:06:44;;;;;;;11.95;5.20;;;8.30;99.90;;;;;;5016967;28;20036;-88
2022/11/04 04:09:25;;;;;;;11.85;5.25;;;8.30;99.90;;;;;;5015006;28;20041;-90
2022/11/04 04:12:12;;;;;;;11.20;4.38;;;8.20;99.90;;;;;;5004238;28;20508;-88
2022/11/04 04:14:44;;;;;;;15.13;4.55;;;8.20;99.90;;;;;;5012541;28;20026;-89
2022/11/04 04:17:35;;;;;;;14.23;4.68;;;8.10;99.90;;;;;;5006239;28;20026;-91
2022/11/04 04:20:13;;;;;;;11.55;4.35;;;8.10;99.90;;;;;;5012226;28;20033;-89
2022/11/04 04:22:48;;;;;;;11.10;4.60;;;8.10;99.90;;;;;;5029950;28;20018;-88
2022/11/04 04:28:01;;;;;;;8.05;4.05;;;8.00;99.90;;;;;;5023152;28;20467;-88
2022/11/04 04:30:27;;;;;;;10.70;4.15;;;8.00;99.90;;;;;;5010074;28;20054;-89
2022/11/04 04:33:14;;;;;;;9.05;4.40;;;8.00;99.90;;;;;;5016622;28;20394;-89
2022/11/04 04:35:51;;;;;;;15.93;4.95;;;8.00;99.90;;;;;;5016892;28;20071;-89
2022/11/04 04:47:06;;;;;;;10.10;4.00;;;7.90;99.90;;;;;;5035079;28;20033;-88
2022/11/04 04:49:33;;;;;;;11.73;4.47;;;7.80;99.90;;;;;;5009741;28;20044;-89
2022/11/04 04:52:05;;;;;;;8.85;4.43;;;7.80;99.90;;;;;;5011741;28;20401;-90
2022/11/04 04:54:31;;;;;;;15.65;4.75;;;7.80;99.90;;;;;;5016495;28;20445;-89
2022/11/04 04:56:56;;;;;;;11.95;4.38;;;7.80;99.90;;;;;;5017840;28;20100;-90
2022/11/04 04:59:22;;;;;;;9.88;5.00;;;7.80;99.90;;;;;;5023989;28;20037;-89
2022/11/04 05:01:47;;;;;;;12.43;4.22;;;7.80;99.90;;;;;;5007020;28;20083;-88
2022/11/04 05:04:13;;;;;;;12.20;4.72;;;7.80;99.90;;;;;;5005800;28;20125;-90
2022/11/04 05:06:39;;;;;;;9.75;3.38;;;7.80;99.90;;;;;;5017217;28;20025;-89
2022/11/04 05:09:04;;;;;;;9.65;3.95;;;7.80;99.90;;;;;;5017580;28;20059;-88
2022/11/04 05:11:30;;;;;;;12.90;4.35;;;7.90;99.90;;;;;;5017538;28;20028;-89
2022/11/04 05:13:55;;;;;;;12.77;4.30;;;7.90;99.90;;;;;;5017061;28;20512;-89
2022/11/04 05:16:21;;;;;;;12.73;4.18;;;7.90;99.90;;;;;;5003071;28;20493;-89
2022/11/04 05:18:46;;;;;;;9.70;3.83;;;7.80;99.90;;;;;;5013391;28;20095;-89
2022/11/04 05:21:14;;;;;;;19.13;4.70;;;7.80;99.90;;;;;;5016205;28;20026;-90
2022/11/04 05:23:40;;;;;;;12.50;4.18;;;7.80;99.90;;;;;;5009406;28;20029;-90
2022/11/04 05:26:05;;;;;;;9.82;3.60;;;7.80;99.90;;;;;;5017992;28;20033;-89
2022/11/04 05:28:31;;;;;;;12.05;4.95;;;7.80;99.90;;;;;;5012195;28;20108;-90
2022/11/04 05:31:00;;;;;;;8.43;3.72;;;7.80;99.90;;;;;;5018557;28;20532;-89
2022/11/04 05:33:26;;;;;;;14.00;3.95;;;7.80;99.90;;;;;;5027216;28;20033;-90
2022/11/04 05:35:52;;;;;;;11.60;3.40;;;7.90;99.90;;;;;;5014783;28;20029;-90
2022/11/04 05:38:17;;;;;;;10.77;3.63;;;7.90;99.90;;;;;;5016992;28;20060;-89
2022/11/04 05:40:43;;;;;;;18.40;3.58;;;7.90;99.90;;;;;;5020287;28;20021;-89
2022/11/04 05:43:08;;;;;;;7.68;3.42;;;7.90;99.90;;;;;;5021423;28;20028;-88
2022/11/04 05:45:34;;;;;;;12.77;3.58;;;7.90;99.90;;;;;;5018229;28;20445;-89
2022/11/04 05:48:00;;;;;;;10.85;3.60;;;8.00;99.90;;;;;;5014203;28;20038;-90
2022/11/04 05:50:27;;;;;;;10.65;2.85;;;8.00;99.90;;;;;;5009810;28;20033;-90
2022/11/04 05:52:59;;;;;;;16.23;2.97;;;8.00;99.90;;;;;;5005617;28;20036;-88
2022/11/04 05:55:25;;;;;;;8.27;3.08;;;8.00;99.90;;;;;;5020228;28;20029;-88
2022/11/04 05:57:51;;;;;;;8.43;2.38;;;8.00;99.90;;;;;;5018678;28;20033;-89
2022/11/04 06:00:17;;;;;;;7.60;2.42;;;8.00;99.90;;;;;;5014769;28;20128;-89
2022/11/04 06:02:43;;;;;;;11.88;3.72;;;8.00;99.90;;;;;;5033336;28;20452;-88
2022/11/04 06:05:08;;;;;;;16.70;3.97;;;8.00;99.90;;;;;;5014855;28;20113;-90
2022/11/04 06:07:34;;;;;;;9.02;3.00;;;7.90;99.90;;;;;;5020465;28;20034;-89
2022/11/04 06:09:59;;;;;;;9.55;3.00;;;7.90;99.90;;;;;;5013222;28;20045;-89
2022/11/04 06:12:25;;;;;;;11.95;3.30;;;7.90;99.90;;;;;;5010525;28;20030;-89
2022/11/04 06:14:51;;;;;;;10.68;3.17;;;7.80;99.90;;;;;;5015289;28;20093;-89
2022/11/04 06:17:19;;;;;;;12.15;3.15;;;7.80;99.90;;;;;;5006520;28;20029;-89
2022/11/04 06:19:45;;;;;;;9.95;3.50;;;7.80;99.90;;;;;;5033667;28;20044;-88
2022/11/04 06:22:12;;;;;;;11.38;3.53;;;7.80;99.90;;;;;;5010665;28;20025;-89
2022/11/04 06:24:38;;;;;;;13.73;4.15;;;7.70;99.90;;;;;;5009897;28;20096;-90
2022/11/04 06:27:04;;;;;;;13.02;3.35;;;7.70;99.90;;;;;;5012252;28;20458;-88
2022/11/04 06:29:29;;;;;;;10.50;3.67;;;7.70;99.90;;;;;;5012644;28;20032;-89
2022/11/04 06:31:55;;;;;;;13.13;3.80;;;7.70;99.90;;;;;;5014657;28;20136;-89
2022/11/04 06:34:21;;;;;;;13.90;4.45;;;7.70;99.90;;;;;;5013029;28;20042;-89
2022/11/04 06:36:48;;;;;;;13.30;4.30;;;7.70;99.90;;;;;;5008177;28;20187;-91
2022/11/04 06:39:14;;;;;;;14.68;4.55;;;7.70;99.90;;;;;;5018239;28;20116;-90
2022/11/04 06:41:40;;;;;;;10.15;4.15;;;7.70;99.90;;;;;;5012479;28;20072;-89
2022/11/04 06:44:06;;;;;;;12.43;3.95;;;7.70;99.90;;;;;;5013341;28;20041;-90
2022/11/04 06:46:42;;;;;;;14.25;3.67;;;7.70;99.90;;;;;;5026156;28;20379;-91
2022/11/04 06:49:17;;;;;;;10.45;4.70;;;7.70;99.90;;;;;;5013958;28;20041;-90
2022/11/04 06:51:43;;;;;;;13.48;3.92;;;7.70;99.90;;;;;;5030937;28;20018;-90
2022/11/04 06:54:09;;;;;;;15.00;5.03;;;7.70;99.90;;;;;;5015623;28;20037;-90
2022/11/04 06:56:35;;;;;;;8.45;4.25;;;7.70;99.90;;;;;;5007111;28;20481;-90
2022/11/04 06:59:01;;;;;;;12.05;4.30;;;7.70;99.90;;;;;;5000866;28;20034;-92
2022/11/04 07:01:29;;;;;;;13.48;5.18;;;7.60;99.90;;;;;;5012708;28;20037;-90
2022/11/04 07:03:57;;;;;;;15.02;4.15;;;7.60;99.90;;;;;;5014229;28;20083;-91
2022/11/04 07:06:23;;;;;;;9.48;4.43;;;7.50;99.90;;;;;;5031303;28;20076;-91
2022/11/04 07:08:51;;;;;;;17.23;4.57;;;7.50;99.90;;;;;;5011271;28;20038;-89
2022/11/04 07:11:20;;;;;;;10.57;3.92;;;7.50;99.90;;;;;;5011631;28;20025;-91
2022/11/04 07:13:46;;;;;;;12.98;4.70;;;7.40;99.90;;;;;;5008433;28;20030;-92
2022/11/04 07:16:12;;;;;;;10.35;4.57;;;7.50;99.90;;;;;;5024469;28;20385;-90
2022/11/04 07:18:37;;;;;;;15.57;4.60;;;7.40;99.90;;;;;;5013706;28;20034;-91
2022/11/04 07:21:04;;;;;;;12.60;4.82;;;7.40;99.90;;;;;;5013191;28;20033;-91
2022/11/04 07:23:30;;;;;;;17.92;5.70;;;7.40;99.90;;;;;;5014606;28;20111;-91
2022/11/04 07:26:03;;;;;;;13.07;4.07;;;7.30;99.90;;;;;;5012719;28;20073;-90
2022/11/04 07:28:29;;;;;;;11.93;4.18;;;7.30;99.90;;;;;;5008681;28;20033;-91
2022/11/04 07:30:58;;;;;;;16.13;5.57;;;7.30;99.90;;;;;;5006295;28;20095;-90
2022/11/04 07:33:25;;;;;;;14.05;4.78;;;7.30;99.90;;;;;;5027067;28;20029;-90
2022/11/04 07:35:52;;;;;;;14.40;5.22;;;7.30;99.90;;;;;;5013476;28;20108;-91
2022/11/04 07:38:18;;;;;;;14.52;5.40;;;7.30;99.90;;;;;;5015623;28;20036;-92
2022/11/04 07:40:44;;;;;;;13.30;5.95;;;7.30;99.90;;;;;;5032275;28;20022;-92
2022/11/04 07:43:10;;;;;;;10.93;5.47;;;7.40;99.90;;;;;;5010825;28;20087;-91
2022/11/04 07:45:35;;;;;;;14.43;5.60;;;7.30;99.90;;;;;;5013078;28;20542;-91
2022/11/04 07:48:01;;;;;;;17.60;7.47;;;7.30;99.90;;;;;;5028551;28;20079;-91
2022/11/04 07:50:28;;;;;;;17.08;6.72;;;7.40;99.90;;;;;;5016083;28;20469;-91
2022/11/04 07:52:53;;;;;;;23.50;7.40;;;7.40;99.90;;;;;;5016237;28;20359;-91
2022/11/04 07:55:19;;;;;;;14.60;6.85;;;7.50;99.90;;;;;;5014040;28;20057;-90
2022/11/04 07:57:47;;;;;;;20.23;7.63;;;7.60;99.90;;;;;;5017082;28;20087;-91
2022/11/04 08:00:15;;;;;;;21.05;7.20;;;7.70;99.90;;;;;;5015663;28;20171;-90
2022/11/04 08:02:45;;;;;;;16.40;7.43;;;7.80;99.90;;;;;;5021085;28;20029;-90
2022/11/04 08:05:12;;;;;;;18.40;7.15;;;7.90;99.90;;;;;;5015533;28;20041;-90
2022/11/04 08:07:37;;;;;;;15.88;7.32;;;8.00;99.90;;;;;;5022425;28;20396;-91
2022/11/04 08:10:04;;;;;;;22.83;7.97;;;8.10;99.90;;;;;;5006953;28;20021;-91
2022/11/04 08:12:31;;;;;;;18.23;8.00;;;8.20;99.90;;;;;;5015780;28;20397;-90
2022/11/04 08:14:57;;;;;;;17.00;7.38;;;8.30;99.90;;;;;;5016466;28;20033;-90
2022/11/04 08:17:22;;;;;;;16.17;7.47;;;8.40;99.90;;;;;;4999171;28;20029;-91
2022/11/04 08:19:48;;;;;;;13.48;6.20;;;8.50;99.90;;;;;;5013006;28;20114;-89
2022/11/04 08:22:13;;;;;;;16.85;7.28;;;8.50;99.90;;;;;;5017253;28;20592;-90
2022/11/04 08:24:39;;;;;;;13.63;6.60;;;8.60;99.90;;;;;;5011289;28;20025;-90
2022/11/04 08:27:08;;;;;;;24.10;6.80;;;8.60;99.90;;;;;;5017331;28;20209;-90
2022/11/04 08:29:35;;;;;;;12.15;5.95;;;8.60;99.90;;;;;;5015173;28;20029;-90
2022/11/04 08:32:00;;;;;;;18.20;6.97;;;8.60;99.90;;;;;;5015800;28;20049;-90
2022/11/04 08:34:26;;;;;;;15.15;6.10;;;8.60;99.90;;;;;;5017250;28;20037;-91
2022/11/04 08:36:56;;;;;;;16.20;6.38;;;8.50;99.90;;;;;;5015846;28;20021;-92
2022/11/04 08:39:22;;;;;;;21.75;7.07;;;8.50;99.90;;;;;;5014060;28;20014;-91
2022/11/04 08:41:49;;;;;;;15.05;6.72;;;8.60;99.90;;;;;;5016575;28;20082;-90
2022/11/04 08:44:15;;;;;;;15.52;7.07;;;8.60;99.90;;;;;;5017918;28;20026;-91
2022/11/04 08:46:43;;;;;;;20.08;8.48;;;8.60;99.90;;;;;;5014817;28;20026;-91
2022/11/04 08:49:09;;;;;;;21.73;8.80;;;8.80;99.90;;;;;;5012830;28;20049;-91
2022/11/04 08:51:37;;;;;;;20.48;8.73;;;8.90;99.90;;;;;;5016781;28;20021;-90
2022/11/04 08:54:04;;;;;;;21.27;7.82;;;9.00;99.90;;;;;;5011776;28;20034;-91
2022/11/04 08:56:33;;;;;;;20.83;8.07;;;9.20;99.90;;;;;;5012208;28;20026;-89
2022/11/04 08:59:00;;;;;;;19.73;8.38;;;9.30;99.90;;;;;;5033841;28;20030;-91
2022/11/04 09:01:27;;;;;;;19.50;7.47;;;9.40;99.90;;;;;;5016690;28;20029;-91
2022/11/04 09:03:53;;;;;;;15.63;7.75;;;9.70;99.90;;;;;;5017538;28;20088;-91
2022/11/04 09:06:25;;;;;;;16.63;7.47;;;9.90;99.90;;;;;;5016870;28;20473;-91
2022/11/04 09:08:54;;;;;;;17.95;7.50;;;10.10;99.90;;;;;;5005510;28;20045;-91
2022/11/04 09:11:19;;;;;;;15.10;6.05;;;10.30;99.90;;;;;;5008223;28;20041;-91
2022/11/04 09:13:45;;;;;;;16.50;6.07;;;10.50;99.90;;;;;;5016905;28;20028;-90
2022/11/04 09:16:12;;;;;;;18.98;6.80;;;10.60;99.90;;;;;;5016685;28;20028;-92
2022/11/04 09:18:38;;;;;;;12.10;5.60;;;10.70;99.90;;;;;;5019208;28;20027;-91
2022/11/04 09:21:06;;;;;;;13.80;5.47;;;10.80;99.90;;;;;;5013867;28;20474;-91
2022/11/04 09:23:32;;;;;;;14.75;6.20;;;10.90;99.90;;;;;;5015897;28;20029;-91
2022/11/04 09:26:02;;;;;;;15.73;5.68;;;11.00;99.90;;;;;;5016112;28;20021;-90
2022/11/04 09:28:28;;;;;;;14.98;5.85;;;11.10;99.90;;;;;;5012055;28;20038;-90
2022/11/04 09:30:54;;;;;;;17.13;5.22;;;11.10;99.90;;;;;;5014584;28;20043;-91
2022/11/04 09:33:19;;;;;;;18.17;6.57;;;11.20;99.90;;;;;;5016795;28;20071;-91
2022/11/04 09:35:54;;;;;;;13.35;5.40;;;11.20;99.90;;;;;;5017714;28;20025;-91
2022/11/04 09:38:20;;;;;;;12.07;4.68;;;11.30;99.90;;;;;;5012580;28;20037;-91
2022/11/04 09:40:47;;;;;;;16.65;5.68;;;11.20;99.90;;;;;;5016159;28;20098;-92
2022/11/04 09:43:31;;;;;;;12.45;5.07;;;11.40;99.90;;;;;;5001663;28;20392;-93
2022/11/04 09:45:58;;;;;;;11.38;5.10;;;11.50;99.90;;;;;;5006598;28;20118;-90
2022/11/04 09:48:36;;;;;;;11.32;5.93;;;11.60;99.90;;;;;;5008352;28;20095;-90
2022/11/04 09:51:05;;;;;;;13.73;5.05;;;11.80;99.90;;;;;;5016275;28;20029;-91
2022/11/04 09:53:47;;;;;;;11.68;4.32;;;11.90;99.90;;;;;;5032585;28;20038;-92
2022/11/04 09:56:12;;;;;;;9.60;4.70;;;12.00;99.90;;;;;;5012957;28;20026;-91
2022/11/04 09:58:38;;;;;;;17.63;5.63;;;12.10;99.90;;;;;;5013416;28;20024;-93
2022/11/04 10:01:30;;;;;;;12.73;4.97;;;12.20;99.90;;;;;;5012526;28;20061;-91
2022/11/04 10:04:17;;;;;;;17.55;6.10;;;12.20;99.90;;;;;;4980881;28;20037;-92
2022/11/04 10:07:10;;;;;;;17.17;5.38;;;12.20;99.90;;;;;;5016100;28;20494;-91
2022/11/04 10:09:53;;;;;;;13.45;5.50;;;12.10;99.90;;;;;;5016266;28;20041;-92
2022/11/04 10:12:24;;;;;;;15.40;5.15;;;12.00;99.90;;;;;;5033079;28;20075;-92
2022/11/04 10:15:12;;;;;;;13.02;4.97;;;11.90;99.90;;;;;;5033588;28;20021;-92
2022/11/04 10:17:50;;;;;;;14.60;5.20;;;11.90;99.90;;;;;;5013894;28;20029;-91
2022/11/04 10:20:33;;;;;;;17.50;5.57;;;11.90;99.90;;;;;;5015496;28;20192;-91
2022/11/04 10:23:23;;;;;;;13.30;5.20;;;12.00;99.90;;;;;;5029241;28;20052;-91
2022/11/04 10:26:06;;;;;;;17.40;6.00;;;12.00;99.90;;;;;;5010254;28;20473;-92
2022/11/04 10:28:40;;;;;;;15.48;5.35;;;12.00;99.90;;;;;;5028294;28;20036;-91
2022/11/04 10:31:09;;;;;;;15.13;5.60;;;12.10;99.90;;;;;;5006793;28;20146;-91
2022/11/04 10:33:40;;;;;;;14.27;5.90;;;12.00;99.90;;;;;;5007760;28;20061;-93
2022/11/04 10:36:11;;;;;;;17.17;6.75;;;12.00;99.90;;;;;;5004859;28;20168;-93
2022/11/04 10:38:48;;;;;;;16.98;5.20;;;12.00;99.90;;;;;;4999093;28;20084;-93
2022/11/04 10:41:22;;;;;;;14.60;6.47;;;12.00;99.90;;;;;;4994069;28;20471;-91
2022/11/04 10:43:55;;;;;;;16.67;6.40;;;12.10;99.90;;;;;;5027884;28;20037;-91
2022/11/04 10:46:20;;;;;;;;;;;12.10;99.90;;;;;;5003504;28;20113;-93
2022/11/04 10:48:56;;;;;;;17.45;5.95;;;12.20;99.90;;;;;;5009778;28;20019;-94
2022/11/04 10:51:23;;;;;;;17.58;6.18;;;12.20;99.90;;;;;;5001978;28;20493;-95
2022/11/04 10:53:54;;;;;;;17.77;6.18;;;12.30;99.90;;;;;;5012120;28;20037;-94
2022/11/04 10:56:43;;;;;;;11.68;5.38;;;12.30;99.90;;;;;;5007150;28;20022;-94
2022/11/04 10:59:23;;;;;;;16.92;7.85;;;12.40;99.90;;;;;;5012761;28;20390;-94
2022/11/04 11:01:52;;;;;;;19.65;8.88;;;12.40;99.90;;;;;;5005907;28;20023;-92
2022/11/04 11:04:27;;;;;;;18.85;10.15;;;12.40;99.90;;;;;;5012858;28;20078;-94
2022/11/04 11:06:55;;;;;;;18.13;9.60;;;12.50;99.90;;;;;;5009351;28;20021;-94
2022/11/04 11:09:27;;;;;;;21.05;9.65;;;12.50;99.90;;;;;;4998192;28;20117;-93
2022/11/04 11:12:12;;;;;;;14.32;7.60;;;12.60;99.90;;;;;;5012814;28;20022;-94
2022/11/04 11:14:39;;;;;;;13.13;6.50;;;12.80;99.90;;;;;;5016716;28;20462;-94
2022/11/04 11:17:17;;;;;;;20.48;8.85;;;12.80;99.90;;;;;;5013438;28;20095;-87
2022/11/04 11:20:07;;;;;;;15.38;7.70;;;12.90;99.90;;;;;;5014241;28;20077;-93
2022/11/04 11:22:43;;;;;;;15.63;7.05;;;12.90;99.90;;;;;;5008407;28;20033;-95
2022/11/04 11:25:27;;;;;;;18.63;9.05;;;12.90;99.90;;;;;;5016856;28;20026;-95
2022/11/04 11:28:08;;;;;;;20.90;9.93;;;12.70;99.90;;;;;;5012787;28;20406;-93
2022/11/04 11:30:42;;;;;;;24.55;12.15;;;12.70;99.90;;;;;;5015038;28;20104;-95
2022/11/04 11:33:19;;;;;;;19.70;12.40;;;12.70;99.90;;;;;;5010450;28;20025;-94
2022/11/04 11:35:53;;;;;;;20.13;11.40;;;12.70;99.90;;;;;;5036638;28;20060;-93
2022/11/04 11:38:26;;;;;;;16.73;11.10;;;12.70;99.90;;;;;;5013460;28;20029;-95
2022/11/04 11:40:53;;;;;;;;;;;12.80;99.90;;;;;;5015885;28;20474;-95
2022/11/04 11:43:30;;;;;;;18.45;9.88;;;12.90;99.90;;;;;;5015945;28;19909;-95
2022/11/04 11:45:58;;;;;;;20.20;8.70;;;12.90;99.90;;;;;;5017164;28;20029;-94
2022/11/04 11:48:28;;;;;;;19.38;7.95;;;12.90;99.90;;;;;;5038265;28;20092;-95
2022/11/04 11:50:59;;;;;;;18.00;8.07;;;13.00;99.90;;;;;;5014971;28;20021;-94
2022/11/04 11:53:28;;;;;;;21.25;9.75;;;13.00;99.90;;;;;;5019161;28;20026;-95
2022/11/04 11:56:10;;;;;;;19.27;9.30;;;13.10;99.90;;;;;;5020267;28;20024;-94
2022/11/04 11:58:55;;;;;;;17.53;9.23;;;13.10;99.90;;;;;;5025129;28;20021;-94
2022/11/04 12:01:26;;;;;;;19.02;10.00;;;13.10;99.90;;;;;;5015887;28;20021;-94
2022/11/04 12:03:52;;;;;;;22.65;11.18;;;13.20;99.90;;;;;;5022297;28;20045;-95
2022/11/04 12:06:39;;;;;;;18.27;10.25;;;13.30;99.90;;;;;;5026925;28;20060;-94
2022/11/04 12:09:50;;;;;;;20.98;11.55;;;13.30;99.90;;;;;;5028519;28;20044;-96
2022/11/04 12:12:26;;;;;;;21.02;11.73;;;13.30;99.90;;;;;;5006543;28;20033;-95
2022/11/04 12:15:11;;;;;;;19.08;11.25;;;13.20;99.90;;;;;;5031722;28;20028;-94
2022/11/04 12:18:12;;;;;;;17.92;11.40;;;13.20;99.90;;;;;;5032200;28;20025;-94
2022/11/04 12:21:05;;;;;;;17.80;11.20;;;13.20;99.90;;;;;;5020248;28;20112;-94
2022/11/04 12:23:45;;;;;;;19.83;12.38;;;13.20;99.90;;;;;;5036835;28;20386;-95
2022/11/04 12:26:42;;;;;;;18.00;11.98;;;13.20;99.90;;;;;;5022686;28;20026;-94
2022/11/04 12:29:37;;;;;;;21.80;12.30;;;13.10;99.90;;;;;;4989486;28;20468;-95
2022/11/04 12:32:44;;;;;;;18.27;13.00;;;13.20;99.90;;;;;;5033823;28;20046;-94
2022/11/04 12:35:22;;;;;;;20.50;13.20;;;13.20;99.90;;;;;;4968862;28;20033;-94
2022/11/04 12:38:32;;;;;;;24.75;13.80;;;13.20;99.90;;;;;;5019408;28;20033;-94
2022/11/04 12:41:22;;;;;;;22.42;13.65;;;13.20;99.90;;;;;;5032859;28;20406;-94
2022/11/04 12:44:00;;;;;;;22.80;14.73;;;13.20;99.90;;;;;;5000321;28;20025;-94
2022/11/04 12:46:55;;;;;;;21.25;15.13;;;13.30;99.90;;;;;;5012467;28;20026;-95
2022/11/04 12:49:48;;;;;;;27.70;17.13;;;13.40;99.90;;;;;;5035226;28;20037;-94
2022/11/04 12:52:24;;;;;;;28.13;17.38;;;13.40;99.90;;;;;;5032450;28;20029;-95
2022/11/04 12:55:04;;;;;;;24.88;16.95;;;13.30;99.90;;;;;;5023966;28;20330;-94
2022/11/04 12:57:55;;;;;;;27.67;18.65;;;13.30;99.90;;;;;;5038119;28;20021;-93
2022/11/04 13:00:23;;;;;;;24.17;17.02;;;13.30;99.90;;;;;;5036576;28;20028;-94
2022/11/04 13:03:17;;;;;;;29.10;16.55;;;13.20;99.90;;;;;;5037290;28;20104;-94
2022/11/04 13:05:55;;;;;;;25.05;16.85;;;13.30;99.90;;;;;;5038051;28;20444;-94
2022/11/04 13:08:32;;;;;;;28.48;17.42;;;13.30;99.90;;;;;;5019342;28;20034;-94
2022/11/04 13:11:21;;;;;;;25.23;17.13;;;13.30;99.90;;;;;;5036254;28;20045;-95
2022/11/04 13:13:51;;;;;;;24.95;17.25;;;13.40;99.90;;;;;;5035646;28;20390;-94
2022/11/04 13:16:17;;;;;;;29.83;16.42;;;13.50;99.90;;;;;;5035336;28;20053;-95
2022/11/04 13:18:44;;;;;;;24.02;16.83;;;13.50;99.90;;;;;;5018373;28;20025;-95
2022/11/04 13:21:18;;;;;;;28.05;17.10;;;13.40;99.90;;;;;;5014502;28;20026;-95
2022/11/04 13:23:59;;;;;;;30.20;17.80;;;13.40;99.90;;;;;;5018906;28;20049;-95
2022/11/04 13:26:24;;;;;;;25.33;17.65;;;13.40;99.90;;;;;;5013486;28;20107;-93
2022/11/04 13:29:15;;;;;;;27.80;17.60;;;13.30;99.90;;;;;;5017482;28;20037;-94
2022/11/04 13:32:04;;;;;;;26.63;18.20;;;13.30;99.90;;;;;;5024699;28;20041;-93
2022/11/04 13:34:58;;;;;;;28.27;17.92;;;13.30;99.90;;;;;;5017903;28;20029;-95